createdAt,value
2019-05-21T00:01:41.580Z,21.43
2019-05-21T00:04:27.145Z,18.83
2019-05-21T00:06:44.064Z,20.23
2019-05-21T00:09:14.474Z,20.10
2019-05-21T00:11:44.912Z,20.53
2019-05-21T00:14:15.545Z,21.20
2019-05-21T00:16:45.976Z,20.73
2019-05-21T00:19:16.447Z,19.67
2019-05-21T00:21:48.098Z,20.20
2019-05-21T00:24:18.734Z,20.20
2019-05-21T00:26:49.223Z,20.57
2019-05-21T00:29:55.586Z,22.17
2019-05-21T00:33:01.652Z,21.00
2019-05-21T00:36:07.813Z,20.33
2019-05-21T00:39:13.569Z,18.10
2019-05-21T00:42:01.206Z,19.10
2019-05-21T00:44:36.963Z,19.43
2019-05-21T00:47:08.814Z,20.23
2019-05-21T00:49:39.239Z,20.73
2019-05-21T00:52:09.979Z,21.17
2019-05-21T00:54:40.707Z,20.70
2019-05-21T00:57:11.766Z,21.50
2019-05-21T00:59:42.388Z,21.10
2019-05-21T01:02:12.806Z,20.80
2019-05-21T01:04:43.233Z,20.63
2019-05-21T01:07:13.661Z,20.37
2019-05-21T01:09:44.086Z,20.10
2019-05-21T01:12:14.514Z,20.17
2019-05-21T01:14:44.942Z,20.47
2019-05-21T01:17:15.370Z,20.40
2019-05-21T01:19:45.839Z,19.27
2019-05-21T01:22:16.377Z,19.47
2019-05-21T01:24:47.013Z,20.03
2019-05-21T01:27:17.484Z,19.03
2019-05-21T01:29:47.915Z,19.13
2019-05-21T01:32:18.341Z,19.23
2019-05-21T01:34:48.757Z,19.37
2019-05-21T01:37:19.193Z,19.20
2019-05-21T01:39:49.622Z,19.50
2019-05-21T01:42:20.048Z,19.20
2019-05-21T01:44:50.577Z,20.10
2019-05-21T01:47:21.014Z,19.17
2019-05-21T01:49:51.534Z,19.00
2019-05-21T01:52:21.959Z,18.60
2019-05-21T01:54:52.391Z,19.17
2019-05-21T01:57:22.963Z,18.97
2019-05-21T01:59:52.729Z,20.57
2019-05-21T02:02:23.146Z,18.47
2019-05-21T02:04:53.585Z,17.17
2019-05-21T02:07:24.011Z,15.33
2019-05-21T02:09:58.270Z,17.30
2019-05-21T02:12:28.927Z,17.00
2019-05-21T02:15:00.994Z,18.90
2019-05-21T02:17:31.452Z,18.67
2019-05-21T02:20:01.930Z,19.97
2019-05-21T02:22:32.474Z,19.80
2019-05-21T02:25:02.946Z,20.70
2019-05-21T02:27:33.590Z,21.37
2019-05-21T02:30:04.967Z,20.70
2019-05-21T02:32:35.972Z,21.40
2019-05-21T02:35:06.592Z,21.07
2019-05-21T02:37:37.019Z,20.63
2019-05-21T02:40:07.753Z,22.03
2019-05-21T02:42:38.179Z,19.00
2019-05-21T02:45:09.221Z,18.60
2019-05-21T02:47:39.648Z,16.57
2019-05-21T02:50:10.283Z,16.60
2019-05-21T02:52:40.706Z,15.70
2019-05-21T02:55:11.147Z,15.40
2019-05-21T02:57:42.145Z,14.37
2019-05-21T03:00:31.655Z,14.33
2019-05-21T03:03:02.702Z,17.07
2019-05-21T03:05:33.295Z,17.00
2019-05-21T03:08:03.917Z,17.07
2019-05-21T03:10:34.380Z,19.13
2019-05-21T03:13:04.814Z,16.73
2019-05-21T03:15:35.234Z,18.00
2019-05-21T03:18:05.867Z,19.13
2019-05-21T03:20:36.498Z,20.43
2019-05-21T03:23:07.032Z,20.37
2019-05-21T03:25:37.470Z,21.07
2019-05-21T03:28:07.889Z,21.17
2019-05-21T03:30:38.380Z,20.13
2019-05-21T03:33:08.953Z,20.30
2019-05-21T03:35:39.369Z,20.23
2019-05-21T03:38:09.799Z,19.73
2019-05-21T03:40:40.231Z,18.80
2019-05-21T03:43:10.659Z,18.60
2019-05-21T03:45:41.090Z,19.33
2019-05-21T03:48:11.506Z,19.87
2019-05-21T03:50:42.033Z,20.43
2019-05-21T03:53:12.458Z,19.80
2019-05-21T03:55:42.887Z,17.97
2019-05-21T03:58:13.317Z,19.07
2019-05-21T04:00:43.738Z,19.07
2019-05-21T04:03:14.223Z,17.10
2019-05-21T04:05:44.697Z,17.20
2019-05-21T04:08:15.123Z,17.63
2019-05-21T04:10:45.554Z,17.97
2019-05-21T04:13:15.984Z,16.73
2019-05-21T04:16:08.323Z,15.60
2019-05-21T04:18:43.767Z,13.47
2019-05-21T04:21:14.334Z,14.67
2019-05-21T04:23:44.966Z,15.63
2019-05-21T04:26:15.445Z,16.57
2019-05-21T04:28:45.885Z,19.87
2019-05-21T04:31:16.311Z,18.80
2019-05-21T04:33:46.793Z,20.67
2019-05-21T04:36:17.269Z,20.77
2019-05-21T04:38:47.692Z,18.10
2019-05-21T04:41:19.148Z,18.17
2019-05-21T04:43:49.568Z,18.67
2019-05-21T04:46:19.999Z,19.23
2019-05-21T04:48:50.422Z,18.97
2019-05-21T04:51:20.851Z,17.40
2019-05-21T04:53:51.280Z,19.47
2019-05-21T04:56:21.708Z,18.83
2019-05-21T04:58:52.135Z,18.53
2019-05-21T05:01:22.557Z,18.60
2019-05-21T05:03:53.086Z,17.57
2019-05-21T05:06:23.660Z,18.57
2019-05-21T05:08:54.151Z,16.30
2019-05-21T05:11:24.572Z,17.53
2019-05-21T05:13:55.016Z,17.73
2019-05-21T05:16:25.426Z,17.10
2019-05-21T05:18:55.853Z,15.80
2019-05-21T05:21:26.324Z,17.43
2019-05-21T05:23:57.115Z,16.93
2019-05-21T05:26:27.543Z,16.07
2019-05-21T05:28:57.969Z,17.83
2019-05-21T05:31:28.399Z,16.13
2019-05-21T05:33:58.823Z,16.63
2019-05-21T05:36:29.357Z,15.67
2019-05-21T05:38:59.835Z,16.47
2019-05-21T05:41:30.311Z,15.80
2019-05-21T05:44:00.737Z,15.03
2019-05-21T05:46:31.166Z,15.50
2019-05-21T05:49:07.124Z,16.40
2019-05-21T05:51:37.550Z,15.00
2019-05-21T05:54:08.153Z,15.80
2019-05-21T05:56:38.610Z,14.60
2019-05-21T05:59:09.038Z,14.00
2019-05-21T06:01:40.604Z,14.13
2019-05-21T06:04:11.018Z,13.90
2019-05-21T06:06:41.554Z,14.17
2019-05-21T06:09:12.124Z,14.43
2019-05-21T06:11:42.600Z,14.70
2019-05-21T06:14:13.175Z,12.17
2019-05-21T06:16:42.742Z,12.97
2019-05-21T06:19:13.174Z,12.93
2019-05-21T06:21:43.744Z,11.13
2019-05-21T06:24:14.376Z,11.43
2019-05-21T06:26:44.856Z,11.87
2019-05-21T06:29:15.285Z,12.00
2019-05-21T06:31:46.739Z,11.70
2019-05-21T06:34:17.167Z,11.93
2019-05-21T06:36:47.691Z,11.03
2019-05-21T06:39:18.247Z,10.23
2019-05-21T06:41:49.716Z,10.43
2019-05-21T06:44:20.204Z,9.77
2019-05-21T06:46:50.630Z,8.50
2019-05-21T06:49:20.238Z,9.30
2019-05-21T06:51:49.729Z,9.13
2019-05-21T06:54:19.345Z,8.63
2019-05-21T06:56:48.858Z,7.93
2019-05-21T06:59:18.363Z,8.60
2019-05-21T07:01:47.865Z,8.70
2019-05-21T07:04:17.441Z,8.67
2019-05-21T07:06:46.967Z,8.43
2019-05-21T07:09:16.558Z,7.60
2019-05-21T07:11:46.616Z,7.63
2019-05-21T07:14:17.051Z,7.33
2019-05-21T07:16:47.459Z,7.87
2019-05-21T07:19:17.890Z,7.57
2019-05-21T07:21:48.472Z,7.07
2019-05-21T07:24:19.095Z,7.40
2019-05-21T07:26:48.538Z,7.63
2019-05-21T07:29:18.978Z,7.73
2019-05-21T07:31:49.414Z,7.20
2019-05-21T07:34:19.934Z,7.80
2019-05-21T07:36:50.367Z,7.70
2019-05-21T07:39:20.787Z,7.50
2019-05-21T07:41:52.237Z,7.00
2019-05-21T07:44:22.708Z,6.70
2019-05-21T07:46:53.196Z,6.80
2019-05-21T07:49:23.626Z,6.60
2019-05-21T07:51:54.089Z,5.55
2019-05-21T07:54:27.827Z,5.20
2019-05-21T07:56:56.594Z,5.72
2019-05-21T07:59:27.073Z,6.20
2019-05-21T08:01:57.498Z,5.80
2019-05-21T08:04:27.930Z,5.20
2019-05-21T08:06:58.350Z,4.97
2019-05-21T08:09:28.983Z,4.90
2019-05-21T08:11:59.410Z,4.95
2019-05-21T08:14:29.880Z,4.80
2019-05-21T08:17:00.373Z,5.33
2019-05-21T08:19:32.227Z,5.20
2019-05-21T08:22:02.706Z,5.08
2019-05-21T08:24:33.332Z,3.90
2019-05-21T08:27:03.815Z,4.75
2019-05-21T08:29:34.234Z,5.33
2019-05-21T08:32:04.671Z,4.15
2019-05-21T08:34:37.888Z,4.08
2019-05-21T08:37:08.390Z,3.85
2019-05-21T08:39:38.806Z,4.75
2019-05-21T08:42:09.306Z,4.25
2019-05-21T08:44:39.982Z,4.20
2019-05-21T08:47:10.610Z,3.52
2019-05-21T08:49:44.084Z,5.03
2019-05-21T08:52:13.103Z,4.05
2019-05-21T08:54:51.106Z,3.83
2019-05-21T08:57:21.853Z,3.35
2019-05-21T08:59:53.293Z,3.40
2019-05-21T09:02:26.969Z,3.52
2019-05-21T09:04:57.601Z,4.37
2019-05-21T09:07:28.054Z,4.05
2019-05-21T09:09:59.511Z,4.30
2019-05-21T09:12:29.934Z,3.80
2019-05-21T09:15:00.461Z,4.00
2019-05-21T09:17:31.139Z,4.03
2019-05-21T09:20:01.629Z,4.20
2019-05-21T09:22:32.127Z,3.22
2019-05-21T09:25:03.450Z,3.22
2019-05-21T09:27:34.141Z,2.67
2019-05-21T09:30:05.225Z,3.00
2019-05-21T09:32:35.703Z,2.95
2019-05-21T09:35:06.790Z,3.15
2019-05-21T09:37:37.276Z,2.83
2019-05-21T09:40:10.083Z,3.58
2019-05-21T09:42:45.528Z,3.00
2019-05-21T09:45:16.045Z,2.80
2019-05-21T09:47:46.590Z,3.10
2019-05-21T09:50:17.409Z,2.92
2019-05-21T09:52:47.814Z,3.40
2019-05-21T09:55:18.463Z,2.80
2019-05-21T09:58:10.591Z,3.77
2019-05-21T10:01:18.399Z,3.10
2019-05-21T10:03:52.250Z,2.52
2019-05-21T10:06:22.758Z,2.15
2019-05-21T10:08:53.362Z,3.35
2019-05-21T10:11:24.812Z,3.25
2019-05-21T10:13:55.242Z,2.80
2019-05-21T10:16:25.773Z,3.00
2019-05-21T10:18:56.242Z,2.50
2019-05-21T10:21:26.810Z,2.95
2019-05-21T10:23:57.299Z,2.45
2019-05-21T10:26:27.931Z,2.58
2019-05-21T10:28:58.428Z,2.70
2019-05-21T10:31:28.950Z,3.17
2019-05-21T10:33:59.474Z,3.27
2019-05-21T10:36:30.521Z,3.08
2019-05-21T10:39:00.943Z,3.00
2019-05-21T10:41:31.678Z,2.40
2019-05-21T10:44:02.208Z,2.70
2019-05-21T10:46:32.845Z,2.62
2019-05-21T10:49:03.268Z,2.40
2019-05-21T10:51:34.875Z,2.60
2019-05-21T10:54:06.419Z,2.40
2019-05-21T10:56:47.553Z,2.42
2019-05-21T10:59:09.059Z,2.37
2019-05-21T11:01:47.444Z,2.67
2019-05-21T11:04:49.042Z,2.87
2019-05-21T11:07:20.743Z,3.40
2019-05-21T11:09:51.228Z,4.00
2019-05-21T11:12:21.880Z,3.37
2019-05-21T11:14:52.284Z,3.35
2019-05-21T11:17:22.963Z,3.62
2019-05-21T11:19:53.445Z,3.50
2019-05-21T11:22:23.914Z,3.98
2019-05-21T11:24:54.442Z,3.92
2019-05-21T11:27:24.974Z,4.08
2019-05-21T11:29:55.463Z,4.20
2019-05-21T11:32:25.886Z,3.67
2019-05-21T11:34:56.316Z,4.12
2019-05-21T11:37:26.744Z,4.28
2019-05-21T11:39:57.168Z,4.47
2019-05-21T11:42:27.698Z,4.08
2019-05-21T11:44:58.114Z,4.25
2019-05-21T11:47:28.554Z,4.90
2019-05-21T11:50:01.026Z,4.25
2019-05-21T11:52:31.453Z,4.17
2019-05-21T11:55:29.315Z,3.10
2019-05-21T11:57:59.819Z,3.17
2019-05-21T12:00:30.797Z,3.33
2019-05-21T12:03:01.213Z,4.40
2019-05-21T12:05:31.645Z,3.67
2019-05-21T12:08:02.640Z,4.33
2019-05-21T12:10:33.105Z,4.05
2019-05-21T12:13:03.563Z,3.70
2019-05-21T12:15:33.974Z,3.95
2019-05-21T12:18:04.389Z,3.60
2019-05-21T12:20:37.187Z,3.60
2019-05-21T12:23:07.100Z,3.58
2019-05-21T12:25:37.736Z,3.98
2019-05-21T12:28:11.118Z,3.12
2019-05-21T12:30:40.518Z,2.67
2019-05-21T12:33:10.954Z,2.72
2019-05-21T12:35:41.386Z,2.77
2019-05-21T12:38:11.795Z,2.37
2019-05-21T12:40:42.235Z,2.75
2019-05-21T12:43:12.658Z,2.47
2019-05-21T12:45:43.086Z,2.45
2019-05-21T12:48:13.514Z,2.65
2019-05-21T12:50:43.949Z,2.33
2019-05-21T12:53:16.507Z,2.70
2019-05-21T12:55:46.647Z,2.83
2019-05-21T12:58:17.439Z,3.62
2019-05-21T13:00:48.048Z,4.28
2019-05-21T13:03:18.531Z,4.10
2019-05-21T13:05:51.852Z,3.58
2019-05-21T13:08:25.746Z,3.52
2019-05-21T13:10:56.263Z,3.60
2019-05-21T13:13:26.693Z,3.17
2019-05-21T13:15:57.121Z,3.40
2019-05-21T13:18:27.546Z,3.25
2019-05-21T13:20:57.972Z,3.22
2019-05-21T13:23:28.502Z,2.72
2019-05-21T13:25:59.079Z,2.40
2019-05-21T13:28:29.606Z,3.20
2019-05-21T13:31:00.243Z,2.85
2019-05-21T13:33:30.743Z,3.40
2019-05-21T13:36:01.355Z,2.20
2019-05-21T13:38:31.780Z,2.55
2019-05-21T13:41:03.360Z,2.47
2019-05-21T13:43:33.751Z,2.60
2019-05-21T13:46:04.380Z,2.30
2019-05-21T13:48:34.819Z,2.45
2019-05-21T13:51:19.244Z,2.25
2019-05-21T13:53:49.720Z,2.87
2019-05-21T13:56:20.120Z,2.58
2019-05-21T13:58:50.963Z,2.30
2019-05-21T14:01:38.747Z,2.50
2019-05-21T14:03:59.626Z,2.30
2019-05-21T14:06:30.020Z,2.10
2019-05-21T14:09:00.460Z,2.70
2019-05-21T14:11:31.284Z,2.10
2019-05-21T14:14:01.933Z,2.30
2019-05-21T14:16:34.773Z,2.40
2019-05-21T14:19:04.459Z,2.30
2019-05-21T14:21:35.962Z,2.05
2019-05-21T14:24:06.498Z,2.02
2019-05-21T14:26:37.119Z,2.00
2019-05-21T14:29:07.750Z,1.80
2019-05-21T14:31:38.245Z,2.20
2019-05-21T14:34:16.400Z,1.62
2019-05-21T14:36:47.031Z,2.33
2019-05-21T14:39:18.727Z,1.87
2019-05-21T14:41:51.166Z,1.98
2019-05-21T14:44:21.795Z,1.70
2019-05-21T14:46:52.322Z,1.60
2019-05-21T14:49:23.029Z,1.42
2019-05-21T14:51:53.474Z,1.65
2019-05-21T14:54:27.043Z,2.60
2019-05-21T14:56:55.979Z,2.00
2019-05-21T14:59:26.609Z,2.20
2019-05-21T15:01:57.242Z,2.10
2019-05-21T15:04:28.045Z,2.40
2019-05-21T15:06:58.612Z,2.12
2019-05-21T15:09:29.036Z,2.20
2019-05-21T15:11:59.462Z,2.30
2019-05-21T15:14:29.905Z,2.10
2019-05-21T15:17:00.305Z,2.60
2019-05-21T15:19:30.730Z,2.75
2019-05-21T15:22:01.339Z,3.05
2019-05-21T15:24:33.555Z,2.92
2019-05-21T15:27:04.040Z,3.33
2019-05-21T15:29:34.747Z,3.17
2019-05-21T15:32:05.230Z,3.47
2019-05-21T15:34:35.710Z,3.17
2019-05-21T15:37:06.433Z,2.67
2019-05-21T15:39:37.022Z,3.22
2019-05-21T15:42:07.630Z,3.52
2019-05-21T15:44:38.432Z,2.95
2019-05-21T15:47:08.919Z,3.15
2019-05-21T15:49:39.454Z,2.80
2019-05-21T15:52:09.980Z,2.75
2019-05-21T15:54:40.492Z,3.42
2019-05-21T15:57:11.145Z,3.10
2019-05-21T15:59:41.627Z,3.85
2019-05-21T16:02:12.098Z,3.72
2019-05-21T16:04:42.522Z,3.50
2019-05-21T16:07:13.099Z,3.72
2019-05-21T16:09:43.580Z,3.67
2019-05-21T16:12:14.435Z,3.52
2019-05-21T16:14:44.842Z,3.35
2019-05-21T16:17:15.272Z,3.72
2019-05-21T16:19:45.697Z,3.87
2019-05-21T16:22:16.124Z,4.10
2019-05-21T16:24:46.551Z,3.95
2019-05-21T16:27:17.024Z,3.62
2019-05-21T16:29:48.132Z,4.05
2019-05-21T16:32:19.086Z,3.90
2019-05-21T16:34:49.577Z,4.10
2019-05-21T16:37:20.476Z,5.53
2019-05-21T16:39:50.956Z,4.35
2019-05-21T16:42:21.489Z,4.40
2019-05-21T16:44:51.913Z,4.65
2019-05-21T16:47:22.544Z,5.03
2019-05-21T16:49:53.998Z,4.58
2019-05-21T16:52:24.432Z,4.20
2019-05-21T16:54:56.086Z,4.75
2019-05-21T16:57:26.512Z,5.37
2019-05-21T16:59:57.203Z,5.20
2019-05-21T17:02:27.768Z,5.43
2019-05-21T17:04:58.195Z,4.87
2019-05-21T17:07:28.631Z,5.37
2019-05-21T17:09:59.303Z,5.67
2019-05-21T17:12:29.966Z,4.97
2019-05-21T17:15:00.415Z,5.30
2019-05-21T17:17:31.019Z,6.27
2019-05-21T17:20:01.473Z,6.10
2019-05-21T17:22:31.900Z,5.43
2019-05-21T17:25:02.555Z,6.33
2019-05-21T17:27:33.296Z,6.40
2019-05-21T17:30:04.071Z,5.80
2019-05-21T17:32:37.515Z,5.53
2019-05-21T17:35:08.338Z,6.10
2019-05-21T17:37:38.754Z,6.43
2019-05-21T17:40:09.559Z,6.23
2019-05-21T17:42:40.082Z,6.33
2019-05-21T17:45:11.384Z,5.67
2019-05-21T17:47:43.039Z,6.43
2019-05-21T17:50:13.770Z,6.27
2019-05-21T17:52:44.194Z,5.83
2019-05-21T17:55:15.746Z,6.50
2019-05-21T17:57:46.582Z,7.00
2019-05-21T18:00:19.779Z,6.63
2019-05-21T18:02:51.523Z,7.43
2019-05-21T18:05:22.051Z,6.83
2019-05-21T18:07:52.590Z,6.90
2019-05-21T18:10:23.022Z,7.10
2019-05-21T18:12:53.913Z,6.50
2019-05-21T18:15:24.691Z,6.50
2019-05-21T18:17:55.219Z,7.60
2019-05-21T18:20:25.851Z,5.90
2019-05-21T18:22:56.485Z,6.83
2019-05-21T18:25:27.114Z,6.57
2019-05-21T18:27:57.792Z,6.23
2019-05-21T18:30:28.783Z,6.97
2019-05-21T18:33:00.924Z,6.70
2019-05-21T18:35:31.760Z,7.53
2019-05-21T18:38:02.326Z,7.80
2019-05-21T18:40:32.955Z,7.20
2019-05-21T18:43:03.435Z,6.83
2019-05-21T18:45:34.015Z,7.90
2019-05-21T18:48:04.441Z,7.27
2019-05-21T18:50:37.146Z,6.97
2019-05-21T18:53:07.957Z,7.20
2019-05-21T18:55:38.388Z,7.17
2019-05-21T18:58:08.811Z,7.57
2019-05-21T19:00:40.625Z,8.17
2019-05-21T19:03:11.406Z,8.43
2019-05-21T19:05:41.831Z,8.70
2019-05-21T19:08:12.375Z,8.00
2019-05-21T19:10:43.198Z,9.73
2019-05-21T19:13:14.622Z,8.10
2019-05-21T19:15:45.487Z,8.37
2019-05-21T19:18:16.038Z,9.70
2019-05-21T19:20:49.838Z,8.93
2019-05-21T19:23:18.916Z,7.90
2019-05-21T19:25:49.342Z,8.87
2019-05-21T19:28:19.818Z,9.13
2019-05-21T19:30:51.266Z,9.73
2019-05-21T19:33:21.856Z,7.97
2019-05-21T19:35:52.281Z,7.60
2019-05-21T19:38:22.721Z,9.23
2019-05-21T19:40:53.254Z,9.23
2019-05-21T19:43:23.910Z,8.80
2019-05-21T19:45:54.810Z,8.87
2019-05-21T19:48:25.236Z,8.60
2019-05-21T19:51:00.117Z,8.43
2019-05-21T19:53:28.911Z,8.77
2019-05-21T19:55:59.688Z,9.07
2019-05-21T19:58:30.217Z,8.80
2019-05-21T20:01:01.261Z,9.10
2019-05-21T20:03:31.790Z,8.60
2019-05-21T20:06:02.421Z,8.13
2019-05-21T20:08:33.054Z,8.77
2019-05-21T20:11:03.993Z,8.90
2019-05-21T20:13:35.765Z,7.87
2019-05-21T20:16:06.599Z,8.50
2019-05-21T20:18:37.368Z,9.33
2019-05-21T20:21:09.079Z,8.23
2019-05-21T20:23:40.223Z,8.00
2019-05-21T20:26:15.257Z,7.90
2019-05-21T20:28:46.981Z,8.77
2019-05-21T20:31:18.018Z,8.03
2019-05-21T20:33:50.227Z,8.17
2019-05-21T20:36:21.795Z,7.90
2019-05-21T20:38:52.781Z,9.03
2019-05-21T20:41:24.284Z,8.27
2019-05-21T20:43:59.159Z,9.07
2019-05-21T20:46:28.577Z,10.10
2019-05-21T20:48:59.495Z,9.67
2019-05-21T20:51:31.275Z,9.07
2019-05-21T20:54:02.344Z,9.40
2019-05-21T20:56:33.915Z,9.07
2019-05-21T20:59:04.839Z,7.60
2019-05-21T21:01:36.438Z,7.63
2019-05-21T21:04:07.535Z,7.60
2019-05-21T21:06:39.572Z,7.37
2019-05-21T21:09:12.415Z,8.30
2019-05-21T21:11:43.347Z,8.57
2019-05-21T21:14:18.390Z,7.73
2019-05-21T21:16:48.805Z,8.17
2019-05-21T21:19:19.379Z,8.00
2019-05-21T21:21:49.932Z,7.57
2019-05-21T21:24:20.378Z,7.13
2019-05-21T21:26:51.213Z,7.53
2019-05-21T21:29:21.807Z,8.83
2019-05-21T21:31:52.470Z,7.43
2019-05-21T21:34:23.389Z,6.97
2019-05-21T21:36:53.566Z,10.37
2019-05-21T21:39:23.555Z,9.13
2019-05-21T21:41:53.974Z,7.80
2019-05-21T21:44:33.678Z,8.13
2019-05-21T21:46:56.878Z,8.80
2019-05-21T21:49:29.051Z,8.50
2019-05-21T21:52:01.302Z,8.90
2019-05-21T21:54:31.945Z,8.90
2019-05-21T21:57:02.372Z,9.67
2019-05-21T21:59:32.802Z,11.63
2019-05-21T22:02:16.237Z,11.30
2019-05-21T22:04:46.966Z,11.57
2019-05-21T22:07:17.394Z,11.20
2019-05-21T22:09:48.068Z,10.67
2019-05-21T22:12:18.709Z,10.83
2019-05-21T22:14:55.737Z,10.53
2019-05-21T22:17:26.647Z,10.23
2019-05-21T22:19:57.835Z,9.47
2019-05-21T22:22:29.068Z,10.87
2019-05-21T22:24:59.495Z,11.50
2019-05-21T22:27:30.230Z,10.30
2019-05-21T22:30:02.027Z,11.67
2019-05-21T22:32:32.618Z,10.67
2019-05-21T22:35:03.050Z,10.63
2019-05-21T22:37:33.544Z,11.43
2019-05-21T22:40:04.308Z,11.40
2019-05-21T22:42:35.349Z,11.40
2019-05-21T22:45:08.420Z,13.50
2019-05-21T22:47:38.662Z,10.83
2019-05-21T22:50:09.652Z,11.83
2019-05-21T22:52:40.130Z,12.93
2019-05-21T22:55:10.709Z,11.27
2019-05-21T22:57:40.178Z,11.63
2019-05-21T23:00:09.983Z,13.03
2019-05-21T23:02:40.198Z,12.40
2019-05-21T23:05:10.327Z,11.30
2019-05-21T23:07:39.823Z,12.60
2019-05-21T23:10:12.507Z,12.53
2019-05-21T23:12:42.013Z,12.20
2019-05-21T23:15:24.506Z,12.43
2019-05-21T23:17:45.365Z,12.00
2019-05-21T23:20:16.362Z,12.20
2019-05-21T23:22:49.170Z,11.53
2019-05-21T23:25:20.314Z,11.93
2019-05-21T23:27:49.860Z,11.60
2019-05-21T23:30:20.578Z,12.03
2019-05-21T23:32:51.724Z,11.33
2019-05-21T23:35:22.714Z,11.53
2019-05-21T23:37:55.622Z,13.17
2019-05-21T23:40:26.203Z,12.53
2019-05-21T23:42:56.657Z,12.03
2019-05-21T23:45:27.390Z,11.57
2019-05-21T23:47:57.818Z,12.63
2019-05-21T23:50:30.214Z,11.83
2019-05-21T23:53:02.507Z,12.93
2019-05-21T23:55:33.194Z,11.07
2019-05-21T23:58:04.357Z,11.73
